Enter the Airport ICAO Code

Search by Airport or City

Current Weather

GCRR | Lanzarote Airport

Lanzarote, Canary Islands, Spain

Last Update 9 Minutes Ago

Sky with Few Clouds

Temperature of 19 ºC

Moderate to Strong Winds from North with Gusts

Temperature

19 ºC

Dew Point Temperature

06 ºC

Relative Humidity

42.75 %

Wind Direction

North (360º, Without Significant Variations)

Wind Velocity

31 km/h (17 kt)

Gusts

52 km/h (28 kt)

Visibility

Greater than 10 Kilometers

Sea Level Pressure

1020 hPa (Hectopascals)

Layers of Clouds

5% to 30% of Sky Covered from 1067 mts (3500 ft) Above Ground Level.

METAR GCRR 090930Z 36017G28KT 9999 FEW035 19/06 Q1020

Weather Forecast

GCRR | Lanzarote Airport

Lanzarote, Canary Islands, Spain

Forecast valid for the next 23 Hours

From now on it is expected:

Partly Cloudy Sky

Moderate to Strong Winds from North

From now on it is expected 13 hours with intermittent periods of:

Moderate to Strong Winds from North with Gusts

In 11 to 13 hours it is expected the begining of:

Moderate Winds from North

Maximum Temperature

21 ºC in 4 Hours

Minimum Temperature

15 ºC in 21 Hours

TAF GCRR 090800Z 0909/1009 02020KT 9999 SCT030 TX21/0914Z TN15/1007Z PROB30 TEMPO 0909/0910 01010KT PROB30 TEMPO 0909/0923 02018G28KT BECMG 0921/0923 01010KT